createdAt,value
2022-11-02T00:02:14.831Z,10.55
2022-11-02T00:04:43.598Z,10.72
2022-11-02T00:07:10.992Z,10.68
2022-11-02T00:09:38.271Z,10.66
2022-11-02T00:12:06.019Z,10.67
2022-11-02T00:14:33.598Z,10.67
2022-11-02T00:17:03.226Z,10.66
2022-11-02T00:19:31.244Z,10.61
2022-11-02T00:22:00.352Z,10.57
2022-11-02T00:24:30.088Z,10.57
2022-11-02T00:26:57.497Z,10.49
2022-11-02T00:29:27.834Z,10.48
2022-11-02T00:31:58.652Z,10.53
2022-11-02T00:34:26.665Z,10.59
2022-11-02T00:36:55.615Z,10.65
2022-11-02T00:39:23.314Z,10.62
2022-11-02T00:41:51.813Z,10.54
2022-11-02T00:44:20.525Z,10.46
2022-11-02T00:46:49.234Z,10.45
2022-11-02T00:49:18.148Z,10.38
2022-11-02T00:51:46.454Z,10.35
2022-11-02T00:54:15.545Z,10.28
2022-11-02T00:56:46.026Z,10.24
2022-11-02T00:59:13.605Z,10.22
2022-11-02T01:01:51.923Z,10.23
2022-11-02T01:04:19.494Z,10.16
2022-11-02T01:06:47.074Z,10.19
2022-11-02T01:09:16.913Z,10.23
2022-11-02T01:11:44.552Z,10.36
2022-11-02T01:14:12.056Z,10.47
2022-11-02T01:16:41.569Z,10.40
2022-11-02T01:19:09.076Z,10.43
2022-11-02T01:21:36.299Z,10.40
2022-11-02T01:24:04.279Z,10.38
2022-11-02T01:26:34.005Z,10.50
2022-11-02T01:29:03.720Z,10.46
2022-11-02T01:31:31.455Z,10.35
2022-11-02T01:33:59.330Z,10.38
2022-11-02T01:36:26.762Z,10.46
2022-11-02T01:38:57.083Z,10.56
2022-11-02T01:41:25.589Z,10.55
2022-11-02T01:43:56.786Z,10.49
2022-11-02T01:46:33.977Z,10.76
2022-11-02T01:49:11.556Z,10.60
2022-11-02T01:52:02.834Z,10.53
2022-11-02T01:54:40.634Z,10.55
2022-11-02T01:57:14.705Z,10.50
2022-11-02T01:59:58.575Z,10.58
2022-11-02T02:02:28.196Z,10.73
2022-11-02T02:05:09.695Z,10.62
2022-11-02T02:07:40.485Z,10.57
2022-11-02T02:10:10.058Z,10.65
2022-11-02T02:12:39.773Z,10.52
2022-11-02T02:15:10.431Z,10.55
2022-11-02T02:17:43.092Z,10.56
2022-11-02T02:20:31.123Z,10.42
2022-11-02T02:23:25.130Z,10.29
2022-11-02T02:26:06.134Z,10.32
2022-11-02T02:29:03.584Z,10.24
2022-11-02T02:31:36.882Z,10.17
2022-11-02T02:34:27.416Z,10.20
2022-11-02T02:37:04.118Z,10.23
2022-11-02T02:39:43.527Z,10.19
2022-11-02T02:42:21.150Z,10.10
2022-11-02T02:45:10.460Z,10.09
2022-11-02T02:47:46.498Z,10.17
2022-11-02T02:50:29.052Z,10.24
2022-11-02T02:53:01.266Z,10.23
2022-11-02T02:55:34.540Z,10.25
2022-11-02T02:58:05.510Z,10.23
2022-11-02T03:00:36.222Z,10.14
2022-11-02T03:03:17.036Z,10.13
2022-11-02T03:06:10.769Z,10.13
2022-11-02T03:08:43.714Z,10.11
2022-11-02T03:11:23.410Z,10.10
2022-11-02T03:14:13.011Z,10.10
2022-11-02T03:17:02.524Z,10.12
2022-11-02T03:19:42.675Z,10.07
2022-11-02T03:22:37.671Z,10.07
2022-11-02T03:25:29.281Z,10.04
2022-11-02T03:28:02.004Z,10.03
2022-11-02T03:30:38.712Z,10.09
2022-11-02T03:33:26.601Z,10.04
2022-11-02T03:36:09.779Z,9.99
2022-11-02T03:38:52.895Z,10.01
2022-11-02T03:41:24.018Z,9.91
2022-11-02T03:43:59.061Z,9.93
2022-11-02T03:46:32.723Z,9.83
2022-11-02T03:49:08.458Z,9.79
2022-11-02T03:51:39.880Z,9.74
2022-11-02T03:54:13.915Z,9.71
2022-11-02T03:56:47.187Z,9.71
2022-11-02T03:59:16.875Z,9.65
2022-11-02T04:01:51.947Z,9.65
2022-11-02T04:04:23.093Z,9.72
2022-11-02T04:06:53.587Z,9.67
2022-11-02T04:09:21.599Z,9.74
2022-11-02T04:12:07.984Z,9.74
2022-11-02T04:14:39.136Z,9.85
2022-11-02T04:20:02.900Z,9.83
2022-11-02T04:22:49.578Z,9.82
2022-11-02T04:25:19.672Z,9.79
2022-11-02T04:28:08.025Z,9.79
2022-11-02T04:30:40.686Z,9.75
2022-11-02T04:33:27.096Z,9.72
2022-11-02T04:36:06.615Z,9.73
2022-11-02T04:38:42.438Z,9.90
2022-11-02T04:41:43.653Z,9.85
2022-11-02T04:44:23.612Z,9.78
2022-11-02T04:47:00.891Z,9.85
2022-11-02T04:49:32.380Z,9.84
2022-11-02T04:52:00.830Z,9.76
2022-11-02T04:54:29.986Z,9.74
2022-11-02T04:57:02.379Z,9.68
2022-11-02T04:59:31.623Z,9.62
2022-11-02T05:02:00.009Z,9.60
2022-11-02T05:04:28.347Z,9.56
2022-11-02T05:07:01.289Z,9.52
2022-11-02T05:09:31.271Z,9.54
2022-11-02T05:11:58.791Z,9.57
2022-11-02T05:14:32.057Z,9.56
2022-11-02T05:17:01.936Z,9.56
2022-11-02T05:19:29.930Z,9.51
2022-11-02T05:21:59.706Z,9.50
2022-11-02T05:24:32.919Z,9.50
2022-11-02T05:27:02.191Z,9.49
2022-11-02T05:29:32.279Z,9.50
2022-11-02T05:31:59.581Z,9.50
2022-11-02T05:34:28.196Z,9.49
2022-11-02T05:36:56.415Z,9.50
2022-11-02T05:39:23.745Z,9.57
2022-11-02T05:41:52.544Z,9.50
2022-11-02T05:44:20.005Z,9.53
2022-11-02T05:46:51.091Z,9.54
2022-11-02T05:49:19.304Z,9.68
2022-11-02T05:51:46.694Z,9.66
2022-11-02T05:54:15.079Z,9.62
2022-11-02T05:56:43.295Z,9.60
2022-11-02T05:59:12.638Z,9.60
2022-11-02T06:01:40.166Z,9.57
2022-11-02T06:04:07.812Z,9.63
2022-11-02T06:06:35.265Z,9.64
2022-11-02T06:09:07.079Z,9.68
2022-11-02T06:11:37.855Z,9.64
2022-11-02T06:14:05.362Z,9.63
2022-11-02T06:16:32.833Z,9.66
2022-11-02T06:19:00.096Z,9.53
2022-11-02T06:21:28.404Z,9.56
2022-11-02T06:23:59.054Z,9.52
2022-11-02T06:26:28.099Z,9.69
2022-11-02T06:28:58.531Z,9.67
2022-11-02T06:31:28.787Z,9.70
2022-11-02T06:33:56.160Z,9.76
2022-11-02T06:36:25.869Z,9.61
2022-11-02T06:38:53.306Z,9.67
2022-11-02T06:41:21.579Z,9.60
2022-11-02T06:43:48.929Z,9.69
2022-11-02T06:46:16.652Z,9.78
2022-11-02T06:48:46.800Z,9.80
2022-11-02T06:51:14.215Z,9.70
2022-11-02T06:53:41.820Z,9.80
2022-11-02T06:56:12.472Z,9.85
2022-11-02T06:58:40.631Z,9.79
2022-11-02T07:01:09.105Z,9.86
2022-11-02T07:03:36.792Z,9.85
2022-11-02T07:06:07.401Z,10.01
2022-11-02T07:08:40.573Z,10.07
2022-11-02T07:11:08.306Z,10.07
2022-11-02T07:13:36.013Z,10.14
2022-11-02T07:16:03.395Z,10.17
2022-11-02T07:18:31.039Z,10.23
2022-11-02T07:21:02.643Z,10.33
2022-11-02T07:23:31.109Z,10.47
2022-11-02T07:25:59.375Z,10.52
2022-11-02T07:28:28.095Z,10.62
2022-11-02T07:30:56.007Z,10.78
2022-11-02T07:33:24.570Z,10.95
2022-11-02T07:35:52.069Z,11.04
2022-11-02T07:38:20.301Z,11.07
2022-11-02T07:40:49.943Z,11.22
2022-11-02T07:43:17.787Z,11.32
2022-11-02T07:45:56.689Z,11.55
2022-11-02T07:48:26.675Z,11.80
2022-11-02T07:50:54.212Z,12.02
2022-11-02T07:53:24.111Z,12.05
2022-11-02T07:55:51.497Z,12.11
2022-11-02T07:58:19.949Z,12.34
2022-11-02T08:00:48.667Z,12.61
2022-11-02T08:03:17.361Z,12.81
2022-11-02T08:05:44.929Z,12.95
2022-11-02T08:08:15.806Z,13.12
2022-11-02T08:10:44.656Z,13.36
2022-11-02T08:13:20.547Z,13.58
2022-11-02T08:15:54.586Z,13.75
2022-11-02T08:18:27.845Z,13.93
2022-11-02T08:20:59.173Z,14.10
2022-11-02T08:23:27.585Z,14.37
2022-11-02T08:25:56.530Z,14.46
2022-11-02T08:28:26.761Z,14.57
2022-11-02T08:30:54.490Z,14.73
2022-11-02T08:33:22.335Z,14.97
2022-11-02T08:35:50.746Z,15.09
2022-11-02T08:38:18.598Z,15.29
2022-11-02T08:40:46.044Z,15.39
2022-11-02T08:43:15.680Z,15.64
2022-11-02T08:48:33.048Z,15.82
2022-11-02T08:51:01.643Z,16.07
2022-11-02T08:53:29.893Z,16.24
2022-11-02T08:55:59.001Z,16.28
2022-11-02T08:58:28.397Z,16.41
2022-11-02T09:00:55.826Z,16.61
2022-11-02T09:03:27.260Z,16.72
2022-11-02T09:06:02.617Z,16.79
2022-11-02T09:08:32.109Z,16.82
2022-11-02T09:11:02.130Z,16.99
2022-11-02T09:13:32.772Z,17.11
2022-11-02T09:16:01.137Z,17.22
2022-11-02T09:18:28.839Z,17.33
2022-11-02T09:20:57.073Z,17.42
2022-11-02T09:23:25.341Z,17.55
2022-11-02T09:25:52.850Z,17.65
2022-11-02T09:28:20.258Z,17.79
2022-11-02T09:30:47.714Z,17.68
2022-11-02T09:33:16.386Z,17.54
2022-11-02T09:35:46.746Z,17.26
2022-11-02T09:38:14.963Z,17.15
2022-11-02T09:40:48.606Z,17.04
2022-11-02T09:43:40.207Z,17.08
2022-11-02T09:46:12.700Z,17.33
2022-11-02T09:49:03.338Z,17.48
2022-11-02T09:51:37.119Z,17.50
2022-11-02T09:54:37.073Z,17.35
2022-11-02T09:57:13.357Z,17.21
2022-11-02T09:59:42.606Z,17.30
2022-11-02T10:02:44.004Z,17.55
2022-11-02T10:05:31.240Z,17.64
2022-11-02T10:08:07.571Z,17.62
2022-11-02T10:10:46.951Z,17.64
2022-11-02T10:14:04.889Z,17.64
2022-11-02T10:16:55.351Z,17.55
2022-11-02T10:19:27.885Z,17.39
2022-11-02T10:21:59.340Z,17.39
2022-11-02T10:24:37.759Z,17.44
2022-11-02T10:27:14.227Z,17.44
2022-11-02T10:30:01.854Z,17.18
2022-11-02T10:32:31.983Z,17.12
2022-11-02T10:35:17.927Z,16.91
2022-11-02T10:38:27.780Z,16.83
2022-11-02T10:41:19.518Z,16.75
2022-11-02T10:44:13.762Z,16.73
2022-11-02T10:46:50.634Z,16.77
2022-11-02T10:49:39.894Z,16.90
2022-11-02T10:52:15.734Z,16.98
2022-11-02T10:54:57.286Z,17.14
2022-11-02T10:57:26.773Z,17.40
2022-11-02T11:00:28.565Z,17.47
2022-11-02T11:03:13.933Z,17.62
2022-11-02T11:05:51.121Z,17.43
2022-11-02T11:08:41.416Z,17.53
2022-11-02T11:11:15.901Z,17.52
2022-11-02T11:16:47.595Z,17.67
2022-11-02T11:19:44.142Z,17.60
2022-11-02T11:22:22.080Z,17.62
2022-11-02T11:24:49.958Z,17.58
2022-11-02T11:27:24.261Z,17.63
2022-11-02T11:29:56.974Z,17.60
2022-11-02T11:32:30.462Z,17.60
2022-11-02T11:35:08.521Z,17.62
2022-11-02T11:37:36.711Z,17.62
2022-11-02T11:40:23.036Z,17.69
2022-11-02T11:42:52.321Z,17.85
2022-11-02T11:45:21.877Z,18.01
2022-11-02T11:48:06.893Z,18.07
2022-11-02T11:50:36.856Z,17.98
2022-11-02T11:53:22.585Z,18.01
2022-11-02T11:55:55.365Z,17.89
2022-11-02T11:58:26.812Z,17.99
2022-11-02T12:01:20.142Z,17.95
2022-11-02T12:03:52.930Z,17.83
2022-11-02T12:06:48.203Z,17.66
2022-11-02T12:09:37.330Z,17.65
2022-11-02T12:12:18.515Z,17.65
2022-11-02T12:15:28.004Z,17.48
2022-11-02T12:18:16.654Z,17.39
2022-11-02T12:21:11.380Z,17.23
2022-11-02T12:24:00.546Z,17.13
2022-11-02T12:26:58.758Z,17.14
2022-11-02T12:29:26.092Z,16.95
2022-11-02T12:32:28.537Z,16.88
2022-11-02T12:35:27.782Z,16.74
2022-11-02T12:38:28.078Z,16.59
2022-11-02T12:41:04.070Z,16.45
2022-11-02T12:43:39.426Z,16.20
2022-11-02T12:46:14.697Z,16.05
2022-11-02T12:49:03.291Z,15.90
2022-11-02T12:51:39.271Z,15.72
2022-11-02T12:54:12.745Z,15.63
2022-11-02T12:56:50.661Z,15.38
2022-11-02T12:59:19.234Z,15.25
2022-11-02T13:01:51.162Z,15.30
2022-11-02T13:04:27.935Z,15.24
2022-11-02T13:07:10.976Z,15.42
2022-11-02T13:09:51.539Z,15.44
2022-11-02T13:12:22.470Z,15.43
2022-11-02T13:14:53.882Z,15.46
2022-11-02T13:17:34.533Z,15.47
2022-11-02T13:20:17.154Z,15.57
2022-11-02T13:23:07.752Z,15.51
2022-11-02T13:25:54.770Z,15.59
2022-11-02T13:28:32.831Z,15.71
2022-11-02T13:31:08.556Z,15.92
2022-11-02T13:33:48.600Z,16.07
2022-11-02T13:36:18.372Z,16.16
2022-11-02T13:39:00.293Z,16.26
2022-11-02T13:41:48.447Z,16.38
2022-11-02T13:44:43.907Z,16.41
2022-11-02T13:47:42.922Z,16.46
2022-11-02T13:50:15.803Z,16.48
2022-11-02T13:52:56.266Z,16.49
2022-11-02T13:55:48.148Z,16.46
2022-11-02T13:58:24.844Z,16.52
2022-11-02T14:00:59.016Z,16.50
2022-11-02T14:03:43.091Z,16.65
2022-11-02T14:06:14.607Z,16.57
2022-11-02T14:08:49.444Z,16.65
2022-11-02T14:11:17.440Z,16.66
2022-11-02T14:13:52.385Z,16.69
2022-11-02T14:16:45.131Z,16.74
2022-11-02T14:19:20.561Z,16.74
2022-11-02T14:21:55.098Z,16.75
2022-11-02T14:24:34.080Z,16.66
2022-11-02T14:27:06.690Z,16.69
2022-11-02T14:29:47.072Z,16.60
2022-11-02T14:32:17.648Z,16.56
2022-11-02T14:35:04.897Z,16.65
2022-11-02T14:37:52.339Z,16.72
2022-11-02T14:40:57.408Z,16.77
2022-11-02T14:44:03.915Z,16.77
2022-11-02T14:46:49.367Z,16.79
2022-11-02T14:49:21.114Z,16.76
2022-11-02T14:52:15.121Z,16.79
2022-11-02T14:55:03.523Z,16.77
2022-11-02T14:57:40.881Z,16.76
2022-11-02T15:00:21.311Z,16.68
2022-11-02T15:02:51.629Z,16.71
2022-11-02T15:05:47.087Z,16.70
2022-11-02T15:08:27.164Z,16.67
2022-11-02T15:10:54.642Z,16.64
2022-11-02T15:13:23.320Z,16.64
2022-11-02T15:15:51.112Z,16.61
2022-11-02T15:18:31.911Z,16.67
2022-11-02T15:21:11.382Z,16.57
2022-11-02T15:23:51.269Z,16.56
2022-11-02T15:26:26.827Z,16.53
2022-11-02T15:28:59.122Z,16.45
2022-11-02T15:31:28.302Z,16.46
2022-11-02T15:33:59.954Z,16.44
2022-11-02T15:36:35.494Z,16.37
2022-11-02T15:39:10.766Z,16.36
2022-11-02T15:42:13.203Z,16.33
2022-11-02T15:45:09.343Z,16.21
2022-11-02T15:47:52.391Z,16.07
2022-11-02T15:50:45.625Z,15.94
2022-11-02T15:53:29.890Z,15.85
2022-11-02T15:56:19.072Z,15.77
2022-11-02T15:58:59.891Z,15.84
2022-11-02T16:01:29.796Z,15.83
2022-11-02T16:04:06.632Z,15.84
2022-11-02T16:06:43.151Z,15.78
2022-11-02T16:09:37.068Z,15.75
2022-11-02T16:12:18.971Z,15.77
2022-11-02T16:15:13.994Z,15.73
2022-11-02T16:17:42.348Z,15.75
2022-11-02T16:20:22.890Z,15.73
2022-11-02T16:22:55.159Z,15.62
2022-11-02T16:25:40.579Z,15.55
2022-11-02T16:28:20.671Z,15.52
2022-11-02T16:31:18.435Z,15.45
2022-11-02T16:33:50.882Z,15.31
2022-11-02T16:36:24.726Z,15.24
2022-11-02T16:38:56.525Z,15.19
2022-11-02T16:41:27.410Z,15.05
2022-11-02T16:43:56.974Z,15.06
2022-11-02T16:46:31.565Z,15.01
2022-11-02T16:49:16.325Z,15.07
2022-11-02T16:51:52.908Z,14.97
2022-11-02T16:54:34.020Z,14.84
2022-11-02T16:57:20.784Z,14.94
2022-11-02T16:59:55.895Z,14.82
2022-11-02T17:02:41.012Z,14.83
2022-11-02T17:05:19.544Z,14.82
2022-11-02T17:08:06.281Z,14.72
2022-11-02T17:10:36.346Z,14.64
2022-11-02T17:13:07.214Z,14.56
2022-11-02T17:15:37.561Z,14.51
2022-11-02T17:18:09.612Z,14.52
2022-11-02T17:20:39.397Z,14.44
2022-11-02T17:23:21.561Z,14.45
2022-11-02T17:25:50.861Z,14.55
2022-11-02T17:28:45.868Z,14.53
2022-11-02T17:31:22.578Z,14.40
2022-11-02T17:33:52.919Z,14.40
2022-11-02T17:36:22.144Z,14.43
2022-11-02T17:38:51.047Z,14.53
2022-11-02T17:41:37.584Z,14.55
2022-11-02T17:44:13.833Z,14.56
2022-11-02T17:46:44.773Z,14.59
2022-11-02T17:49:15.283Z,14.58
2022-11-02T17:51:43.150Z,14.55
2022-11-02T17:54:14.235Z,14.57
2022-11-02T17:56:42.073Z,14.54
2022-11-02T17:59:10.962Z,14.56
2022-11-02T18:01:39.219Z,14.53
2022-11-02T18:04:06.793Z,14.51
2022-11-02T18:06:34.311Z,14.63
2022-11-02T18:09:23.926Z,14.62
2022-11-02T18:11:53.867Z,14.59
2022-11-02T18:14:21.327Z,14.59
2022-11-02T18:16:50.646Z,14.52
2022-11-02T18:19:18.087Z,14.49
2022-11-02T18:21:45.522Z,14.44
2022-11-02T18:24:12.747Z,14.46
2022-11-02T18:26:42.739Z,14.45
2022-11-02T18:29:13.682Z,14.39
2022-11-02T18:31:41.703Z,14.44
2022-11-02T18:34:12.479Z,14.37
2022-11-02T18:36:40.964Z,14.56
2022-11-02T18:39:11.782Z,14.51
2022-11-02T18:41:42.982Z,14.45
2022-11-02T18:44:15.267Z,14.48
2022-11-02T18:46:43.115Z,14.43
2022-11-02T18:49:10.483Z,14.43
2022-11-02T18:51:43.166Z,14.38
2022-11-02T18:54:13.181Z,14.42
2022-11-02T18:56:40.899Z,14.44
2022-11-02T18:59:08.721Z,14.54
2022-11-02T19:01:37.532Z,14.49
2022-11-02T19:04:06.160Z,14.48
2022-11-02T19:06:52.491Z,14.45
2022-11-02T19:09:23.910Z,14.37
2022-11-02T19:12:01.158Z,14.31
2022-11-02T19:14:35.062Z,14.32
2022-11-02T19:17:03.828Z,14.45
2022-11-02T19:19:32.270Z,14.40
2022-11-02T19:22:00.285Z,14.32
2022-11-02T19:24:28.378Z,14.31
2022-11-02T19:26:56.758Z,14.23
2022-11-02T19:29:24.335Z,14.20
2022-11-02T19:31:54.073Z,14.31
2022-11-02T19:34:23.928Z,14.28
2022-11-02T19:36:52.193Z,14.30
2022-11-02T19:39:19.564Z,14.34
2022-11-02T19:41:51.828Z,14.32
2022-11-02T19:44:19.311Z,14.31
2022-11-02T19:46:50.884Z,14.24
2022-11-02T19:49:18.993Z,14.33
2022-11-02T19:51:46.496Z,14.33
2022-11-02T19:54:14.808Z,14.33
2022-11-02T19:56:42.568Z,14.32
2022-11-02T19:59:10.791Z,14.31
2022-11-02T20:01:42.855Z,14.23
2022-11-02T20:04:10.490Z,14.24
2022-11-02T20:06:40.684Z,14.15
2022-11-02T20:09:17.409Z,14.09
2022-11-02T20:11:46.932Z,14.16
2022-11-02T20:14:16.091Z,14.11
2022-11-02T20:16:45.309Z,14.16
2022-11-02T20:19:22.145Z,14.33
2022-11-02T20:21:51.233Z,14.34
2022-11-02T20:24:19.175Z,14.24
2022-11-02T20:26:46.394Z,14.26
2022-11-02T20:29:18.194Z,14.25
2022-11-02T20:31:52.097Z,14.10
2022-11-02T20:34:21.193Z,14.22
2022-11-02T20:36:49.937Z,14.09
2022-11-02T20:39:18.339Z,14.21
2022-11-02T20:41:45.763Z,14.23
2022-11-02T20:44:13.216Z,14.16
2022-11-02T20:46:42.208Z,14.09
2022-11-02T20:49:22.859Z,14.05
2022-11-02T20:51:59.729Z,14.12
2022-11-02T20:54:29.874Z,14.13
2022-11-02T20:56:58.930Z,14.08
2022-11-02T20:59:28.635Z,14.02
2022-11-02T21:01:57.167Z,13.99
2022-11-02T21:04:24.764Z,14.08
2022-11-02T21:06:53.047Z,14.13
2022-11-02T21:09:20.885Z,14.09
2022-11-02T21:12:07.541Z,14.13
2022-11-02T21:14:35.885Z,14.09
2022-11-02T21:17:05.722Z,14.10
2022-11-02T21:19:33.581Z,14.01
2022-11-02T21:22:01.396Z,13.95
2022-11-02T21:24:29.367Z,14.02
2022-11-02T21:26:59.566Z,13.87
2022-11-02T21:29:28.749Z,14.04
2022-11-02T21:31:56.345Z,13.97
2022-11-02T21:34:25.261Z,13.99
2022-11-02T21:36:53.249Z,14.03
2022-11-02T21:39:20.662Z,14.05
2022-11-02T21:41:48.279Z,13.93
2022-11-02T21:44:16.628Z,13.93
2022-11-02T21:46:46.689Z,13.94
2022-11-02T21:49:14.210Z,14.02
2022-11-02T21:51:42.993Z,14.16
2022-11-02T21:54:11.502Z,14.12
2022-11-02T21:56:39.736Z,14.15
2022-11-02T21:59:10.012Z,14.15
2022-11-02T22:01:44.454Z,14.23
2022-11-02T22:05:37.158Z,14.30
2022-11-02T22:08:23.983Z,14.35
2022-11-02T22:10:57.742Z,14.30
2022-11-02T22:13:34.811Z,14.31
2022-11-02T22:16:25.354Z,14.27
2022-11-02T22:18:57.824Z,14.24
2022-11-02T22:21:30.880Z,14.33
2022-11-02T22:24:00.576Z,14.30
2022-11-02T22:26:29.856Z,14.31
2022-11-02T22:28:58.175Z,14.41
2022-11-02T22:31:28.515Z,14.32
2022-11-02T22:33:58.371Z,14.28
2022-11-02T22:36:28.212Z,14.29
2022-11-02T22:38:58.689Z,14.30
2022-11-02T22:41:30.615Z,14.43
2022-11-02T22:43:59.390Z,14.40
2022-11-02T22:46:28.342Z,14.31
2022-11-02T22:49:01.531Z,14.38
2022-11-02T22:51:31.619Z,14.40
2022-11-02T22:54:06.706Z,14.42
2022-11-02T22:56:35.679Z,14.39
2022-11-02T22:59:04.236Z,14.51
2022-11-02T23:01:34.524Z,14.50
2022-11-02T23:04:03.299Z,14.48
2022-11-02T23:06:32.059Z,14.41
2022-11-02T23:09:00.164Z,14.42
2022-11-02T23:11:31.206Z,14.35
2022-11-02T23:14:12.626Z,14.38
2022-11-02T23:16:47.090Z,14.36
2022-11-02T23:19:28.328Z,14.44
2022-11-02T23:22:20.420Z,14.43
2022-11-02T23:25:13.125Z,14.36
2022-11-02T23:28:01.810Z,14.36
2022-11-02T23:30:55.021Z,14.42
2022-11-02T23:33:25.224Z,14.43
2022-11-02T23:36:11.233Z,14.46
2022-11-02T23:38:58.924Z,14.44
2022-11-02T23:41:27.517Z,14.48
2022-11-02T23:44:11.689Z,14.50
2022-11-02T23:46:54.128Z,14.50
2022-11-02T23:49:21.718Z,14.63
2022-11-02T23:52:08.956Z,14.53
2022-11-02T23:54:56.629Z,14.46
2022-11-02T23:57:26.370Z,14.46
2022-11-02T23:59:53.745Z,14.45
